Time;durP1;ratioP1;P1;durP2;ratioP2;P2;SDS_P1;SDS_P2;PMS_P1;PMS_P2;Temp;Humidity;BMP_temperature;BMP_pressure;BME280_temperature;BME280_humidity;BME280_pressure;Samples;Min_cycle;Max_cycle;Signal;HPM_P1;HPM_P2
2021/03/17 00:00:15;;;;;;;17.33;2.92;;;1.90;99.90;;;;;;5052688;28;20028;-83
2021/03/17 00:02:41;;;;;;;23.88;2.47;;;1.80;99.90;;;;;;5052088;28;20163;-82
2021/03/17 00:05:07;;;;;;;40.58;3.58;;;1.80;99.90;;;;;;5051780;28;20108;-82
2021/03/17 00:07:33;;;;;;;16.83;2.30;;;1.80;99.90;;;;;;5052184;28;20032;-83
2021/03/17 00:09:59;;;;;;;31.60;2.97;;;1.80;99.90;;;;;;5052273;28;20017;-82
2021/03/17 00:12:25;;;;;;;24.13;2.65;;;1.80;99.90;;;;;;5052386;28;20040;-83
2021/03/17 00:14:51;;;;;;;30.27;2.50;;;1.70;99.90;;;;;;5051416;28;20167;-83
2021/03/17 00:17:16;;;;;;;23.33;4.63;;;1.60;99.90;;;;;;5052223;28;20100;-83
2021/03/17 00:19:42;;;;;;;19.30;2.55;;;1.60;99.90;;;;;;5052201;28;20133;-83
2021/03/17 00:22:08;;;;;;;20.38;2.15;;;1.50;99.90;;;;;;5051818;28;20033;-83
2021/03/17 00:24:34;;;;;;;17.33;2.90;;;1.50;99.90;;;;;;5051282;28;20622;-83
2021/03/17 00:27:00;;;;;;;23.45;2.45;;;1.40;99.90;;;;;;5034121;28;20496;-83
2021/03/17 00:29:25;;;;;;;20.58;3.00;;;1.30;99.90;;;;;;5034242;28;20021;-83
2021/03/17 00:31:51;;;;;;;23.50;2.15;;;1.20;99.90;;;;;;5051538;28;20432;-83
2021/03/17 00:34:16;;;;;;;13.68;2.25;;;1.10;99.90;;;;;;5050900;28;20420;-83
2021/03/17 00:36:42;;;;;;;18.77;2.60;;;1.10;99.90;;;;;;5052010;28;20032;-83
2021/03/17 00:39:08;;;;;;;22.85;3.38;;;1.20;99.90;;;;;;5051644;28;20078;-83
2021/03/17 00:41:33;;;;;;;25.02;2.47;;;1.20;99.90;;;;;;5051701;28;20033;-84
2021/03/17 00:43:59;;;;;;;21.45;3.30;;;1.30;99.90;;;;;;5050787;28;20047;-83
2021/03/17 00:46:24;;;;;;;22.15;4.45;;;1.20;99.90;;;;;;5033883;28;20056;-82
2021/03/17 00:48:50;;;;;;;17.20;2.95;;;1.30;99.90;;;;;;5051623;28;20032;-82
2021/03/17 00:51:16;;;;;;;23.00;3.95;;;1.20;99.90;;;;;;5051719;28;20024;-83
2021/03/17 00:53:41;;;;;;;17.77;3.40;;;1.20;99.90;;;;;;5050917;28;20033;-83
2021/03/17 00:56:07;;;;;;;39.13;5.55;;;1.10;99.90;;;;;;5051396;28;20021;-83
2021/03/17 00:58:32;;;;;;;18.88;2.50;;;1.10;99.90;;;;;;5051979;28;20421;-83
2021/03/17 01:00:58;;;;;;;27.65;3.15;;;0.90;99.90;;;;;;5033639;28;20032;-82
2021/03/17 01:03:23;;;;;;;14.32;2.63;;;0.90;99.90;;;;;;5051033;28;20102;-83
2021/03/17 01:05:49;;;;;;;12.73;2.97;;;0.90;99.90;;;;;;5050935;28;20528;-83
2021/03/17 01:08:14;;;;;;;20.90;4.70;;;0.80;99.90;;;;;;5033328;28;20036;-83
2021/03/17 01:10:47;;;;;;;35.65;3.63;;;0.80;99.90;;;;;;5051387;28;20021;-83
2021/03/17 01:13:13;;;;;;;20.55;3.05;;;0.70;99.90;;;;;;5051175;28;20108;-83
2021/03/17 01:15:39;;;;;;;22.95;2.75;;;0.70;99.90;;;;;;5050677;28;20489;-83
2021/03/17 01:18:05;;;;;;;31.85;4.05;;;0.70;99.90;;;;;;5033517;28;20032;-83
2021/03/17 01:20:32;;;;;;;31.25;2.65;;;0.60;99.90;;;;;;5051394;28;20108;-83
2021/03/17 01:22:58;;;;;;;20.02;2.65;;;0.60;99.90;;;;;;5033246;28;20111;-83
2021/03/17 01:25:33;;;;;;;10.50;3.28;;;0.40;99.90;;;;;;5032355;28;20033;-83
2021/03/17 01:28:03;;;;;;;28.10;3.78;;;0.40;99.90;;;;;;5051130;28;20021;-83
2021/03/17 01:30:30;;;;;;;20.95;3.28;;;0.30;99.90;;;;;;5051229;28;20027;-83
2021/03/17 01:32:55;;;;;;;28.45;3.78;;;0.30;99.90;;;;;;5051026;28;20021;-83
2021/03/17 01:35:21;;;;;;;19.90;3.28;;;0.30;99.90;;;;;;5033153;28;20127;-83
2021/03/17 01:37:46;;;;;;;20.80;2.95;;;0.20;99.90;;;;;;5033288;28;20044;-83
2021/03/17 01:40:13;;;;;;;18.92;3.03;;;0.20;99.90;;;;;;5033250;28;20510;-83
2021/03/17 01:42:40;;;;;;;22.90;3.35;;;0.20;99.90;;;;;;5051079;28;20108;-83
2021/03/17 01:45:13;;;;;;;20.90;2.92;;;0.10;99.90;;;;;;5052421;28;20555;-83
2021/03/17 01:47:39;;;;;;;13.15;3.10;;;0.20;99.90;;;;;;5055196;28;20056;-83
2021/03/17 01:50:11;;;;;;;19.13;4.82;;;0.30;99.90;;;;;;5054918;28;20075;-82
2021/03/17 01:52:37;;;;;;;31.85;3.42;;;0.40;99.90;;;;;;5054736;28;20033;-83
2021/03/17 01:55:05;;;;;;;15.85;2.92;;;0.50;99.90;;;;;;5054381;28;20086;-83
2021/03/17 01:57:31;;;;;;;13.40;2.95;;;0.50;99.90;;;;;;5054252;28;20021;-83
2021/03/17 01:59:57;;;;;;;17.90;3.10;;;0.50;99.90;;;;;;5054493;28;20504;-83
2021/03/17 02:02:23;;;;;;;20.17;4.25;;;0.50;99.90;;;;;;5054742;28;20033;-83
2021/03/17 02:04:49;;;;;;;21.67;3.20;;;0.40;99.90;;;;;;5033032;28;20029;-83
2021/03/17 02:07:15;;;;;;;23.35;3.58;;;0.40;99.90;;;;;;5035148;28;20025;-83
2021/03/17 02:09:41;;;;;;;17.52;3.22;;;0.40;99.90;;;;;;5054777;28;20029;-83
2021/03/17 02:12:21;;;;;;;21.52;2.45;;;0.40;99.90;;;;;;5036698;28;20021;-83
2021/03/17 02:15:15;;;;;;;27.38;3.08;;;0.30;99.90;;;;;;5053555;28;20029;-83
2021/03/17 02:17:44;;;;;;;12.37;2.83;;;0.20;99.90;;;;;;5054758;28;20021;-83
2021/03/17 02:20:32;;;;;;;14.10;3.03;;;0.10;99.90;;;;;;5036435;28;20052;-83
2021/03/17 02:23:13;;;;;;;17.20;3.17;;;0.00;99.90;;;;;;5054211;28;20379;-83
2021/03/17 02:25:44;;;;;;;15.68;3.03;;;0.00;99.90;;;;;;5053612;28;20414;-82
2021/03/17 02:28:28;;;;;;;23.35;3.13;;;0.20;99.90;;;;;;5054120;28;20029;-83
2021/03/17 02:31:18;;;;;;;29.20;3.13;;;0.20;99.90;;;;;;5054283;28;20017;-83
2021/03/17 02:34:11;;;;;;;21.63;3.25;;;0.30;99.90;;;;;;5053513;28;20033;-82
2021/03/17 02:36:53;;;;;;;9.13;2.90;;;0.30;99.90;;;;;;5040422;28;20128;-83
2021/03/17 02:39:26;;;;;;;21.80;4.57;;;0.40;99.90;;;;;;5053796;28;20033;-83
2021/03/17 02:42:19;;;;;;;26.27;3.03;;;0.50;99.90;;;;;;5054276;28;20021;-83
2021/03/17 02:44:55;;;;;;;18.35;4.50;;;0.60;99.90;;;;;;5052388;28;20493;-83
2021/03/17 02:47:22;;;;;;;21.98;3.40;;;0.70;99.90;;;;;;5035983;28;20032;-83
2021/03/17 02:49:49;;;;;;;19.33;2.83;;;0.70;99.90;;;;;;5054086;28;20033;-83
2021/03/17 02:52:16;;;;;;;30.80;3.65;;;0.70;99.90;;;;;;5053390;28;20017;-83
2021/03/17 02:54:47;;;;;;;20.50;3.00;;;0.70;99.90;;;;;;5053176;28;20029;-83
2021/03/17 02:57:19;;;;;;;21.55;2.92;;;0.60;99.90;;;;;;5053662;28;20493;-83
2021/03/17 02:59:51;;;;;;;7.47;2.72;;;0.60;99.90;;;;;;5053391;28;20021;-83
2021/03/17 03:02:18;;;;;;;21.55;3.47;;;0.60;99.90;;;;;;5053845;28;20040;-82
2021/03/17 03:04:44;;;;;;;10.93;2.90;;;0.50;99.90;;;;;;5034614;28;20112;-82
2021/03/17 03:07:11;;;;;;;19.38;3.38;;;0.50;99.90;;;;;;5053141;28;20049;-83
2021/03/17 03:09:37;;;;;;;23.65;3.78;;;0.60;99.90;;;;;;5053440;28;20120;-83
2021/03/17 03:12:03;;;;;;;20.25;3.42;;;0.50;99.90;;;;;;5053645;28;20066;-83
2021/03/17 03:14:30;;;;;;;28.27;4.15;;;0.50;99.90;;;;;;5052659;28;20025;-83
2021/03/17 03:16:58;;;;;;;13.35;2.38;;;0.40;99.90;;;;;;5053496;28;20108;-82
2021/03/17 03:19:29;;;;;;;13.52;3.25;;;0.30;99.90;;;;;;5053068;28;20029;-83
2021/03/17 03:21:57;;;;;;;16.05;3.22;;;0.10;99.90;;;;;;5053349;28;20032;-82
2021/03/17 03:24:23;;;;;;;19.88;3.38;;;0.00;99.90;;;;;;5034628;28;20040;-83
2021/03/17 03:26:52;;;;;;;13.15;3.45;;;0.00;99.90;;;;;;5035425;28;20078;-82
2021/03/17 03:29:18;;;;;;;17.50;2.50;;;-0.20;99.90;;;;;;5052625;28;20025;-83
2021/03/17 03:31:46;;;;;;;18.38;3.08;;;-0.40;99.90;;;;;;5034461;28;20614;-83
2021/03/17 03:34:12;;;;;;;24.42;3.38;;;-0.40;99.90;;;;;;5034161;28;20504;-83
2021/03/17 03:36:37;;;;;;;12.13;3.28;;;-0.40;99.90;;;;;;5051891;28;20029;-83
2021/03/17 03:39:03;;;;;;;21.70;3.72;;;-0.30;99.90;;;;;;5052488;28;20374;-83
2021/03/17 03:41:29;;;;;;;30.40;4.57;;;-0.20;99.90;;;;;;5052985;28;20027;-83
2021/03/17 03:43:55;;;;;;;12.63;3.20;;;-0.10;99.90;;;;;;5034269;28;20087;-83
2021/03/17 03:46:20;;;;;;;17.08;3.47;;;0.00;99.90;;;;;;5053033;28;20025;-82
2021/03/17 03:48:46;;;;;;;24.17;4.18;;;0.00;99.90;;;;;;5034455;28;20377;-83
2021/03/17 03:51:12;;;;;;;21.40;4.05;;;0.00;99.90;;;;;;5052608;28;20035;-83
2021/03/17 03:53:50;;;;;;;20.48;3.70;;;0.10;99.90;;;;;;5052393;28;20116;-83
2021/03/17 03:56:23;;;;;;;16.13;4.03;;;0.00;99.90;;;;;;5052799;28;20017;-83
2021/03/17 03:59:07;;;;;;;15.43;3.22;;;0.20;99.90;;;;;;5034710;28;20033;-83
2021/03/17 04:01:38;;;;;;;12.82;3.47;;;0.00;99.90;;;;;;5052500;28;20037;-83
2021/03/17 04:04:09;;;;;;;25.70;5.50;;;0.00;99.90;;;;;;5051992;28;20060;-83
2021/03/17 04:06:35;;;;;;;19.85;2.97;;;0.10;99.90;;;;;;5052697;28;20362;-82
2021/03/17 04:09:03;;;;;;;7.95;3.28;;;0.00;99.90;;;;;;5033798;28;20039;-83
2021/03/17 04:11:29;;;;;;;10.88;3.28;;;-0.10;99.90;;;;;;5052476;28;20013;-83
2021/03/17 04:13:58;;;;;;;18.75;3.38;;;-0.20;99.90;;;;;;5051793;28;20048;-83
2021/03/17 04:16:25;;;;;;;6.88;2.38;;;-0.40;99.90;;;;;;5052384;28;20053;-83
2021/03/17 04:18:51;;;;;;;6.47;2.55;;;-0.60;99.90;;;;;;5052171;28;20029;-83
2021/03/17 04:21:24;;;;;;;9.82;3.47;;;-0.70;99.90;;;;;;5051906;28;20029;-83
2021/03/17 04:23:50;;;;;;;12.63;2.85;;;-0.90;99.90;;;;;;5033381;28;20033;-83
2021/03/17 04:26:17;;;;;;;10.32;2.90;;;-1.00;99.90;;;;;;5052251;28;20420;-83
2021/03/17 04:28:46;;;;;;;19.35;3.97;;;-1.10;99.90;;;;;;5033971;28;20473;-83
2021/03/17 04:31:12;;;;;;;18.75;3.10;;;-1.10;99.90;;;;;;5051486;28;20507;-83
2021/03/17 04:33:38;;;;;;;22.80;4.15;;;-1.20;99.90;;;;;;5033923;28;20513;-82
2021/03/17 04:36:05;;;;;;;13.48;3.75;;;-1.10;99.90;;;;;;5051831;28;20021;-83
2021/03/17 04:38:32;;;;;;;23.90;4.78;;;-0.90;99.90;;;;;;5051432;28;20025;-83
2021/03/17 04:40:58;;;;;;;11.82;3.55;;;-0.60;99.90;;;;;;5051933;28;20029;-83
2021/03/17 04:43:24;;;;;;;16.17;4.00;;;-0.50;99.90;;;;;;5051911;28;20393;-83
2021/03/17 04:45:51;;;;;;;12.30;4.20;;;-0.40;99.90;;;;;;5051270;28;20044;-83
2021/03/17 04:48:18;;;;;;;13.82;3.03;;;-0.40;99.90;;;;;;5033387;28;20079;-83
2021/03/17 04:50:46;;;;;;;17.10;3.30;;;-0.60;99.90;;;;;;5051682;28;20094;-83
2021/03/17 04:53:12;;;;;;;8.65;3.05;;;-0.60;99.90;;;;;;5033606;28;20021;-83
2021/03/17 04:55:38;;;;;;;14.20;3.47;;;-0.80;99.90;;;;;;5051063;28;20092;-83
2021/03/17 04:58:09;;;;;;;7.85;3.30;;;-0.90;99.90;;;;;;5051403;28;20037;-83
2021/03/17 05:00:35;;;;;;;12.25;3.90;;;-1.10;99.90;;;;;;5051330;28;20045;-83
2021/03/17 05:03:04;;;;;;;13.60;3.08;;;-1.20;99.90;;;;;;5051556;28;20021;-82
2021/03/17 05:05:31;;;;;;;10.80;3.30;;;-1.40;99.90;;;;;;5033082;28;20036;-83
2021/03/17 05:07:57;;;;;;;12.60;3.70;;;-1.40;99.90;;;;;;5051254;28;20047;-83
2021/03/17 05:10:25;;;;;;;11.40;4.03;;;-1.50;99.90;;;;;;5051380;28;20029;-83
2021/03/17 05:12:52;;;;;;;13.05;2.97;;;-1.50;99.90;;;;;;5033738;28;20104;-83
2021/03/17 05:15:19;;;;;;;16.30;3.90;;;-1.50;99.90;;;;;;5050773;28;20707;-83
2021/03/17 05:17:47;;;;;;;14.32;3.95;;;-1.50;99.90;;;;;;5033068;28;20126;-83
2021/03/17 05:20:18;;;;;;;9.13;4.07;;;-1.50;99.90;;;;;;5030020;28;20067;-83
2021/03/17 05:22:46;;;;;;;23.00;6.97;;;-1.60;99.90;;;;;;5037163;28;20065;-83
2021/03/17 05:25:13;;;;;;;18.35;5.22;;;-1.50;99.90;;;;;;5050764;28;20029;-83
2021/03/17 05:27:39;;;;;;;13.27;4.38;;;-1.40;99.90;;;;;;5051247;28;20029;-83
2021/03/17 05:30:09;;;;;;;14.68;4.55;;;-1.30;99.90;;;;;;5050933;28;20036;-83
2021/03/17 05:32:35;;;;;;;25.63;6.70;;;-1.10;99.90;;;;;;5051298;28;20035;-83
2021/03/17 05:35:07;;;;;;;23.67;6.68;;;-0.80;99.90;;;;;;5032804;28;20025;-83
2021/03/17 05:37:33;;;;;;;25.70;6.50;;;-0.60;99.90;;;;;;5033243;28;20028;-83
2021/03/17 05:39:58;;;;;;;23.35;7.97;;;-0.50;99.90;;;;;;5050841;28;20017;-83
2021/03/17 05:42:25;;;;;;;45.53;8.35;;;-0.50;99.90;;;;;;5051180;28;20032;-83
2021/03/17 05:44:53;;;;;;;30.50;6.68;;;-0.50;99.90;;;;;;5032697;28;20021;-83
2021/03/17 05:47:20;;;;;;;23.15;6.35;;;-0.50;99.90;;;;;;5051161;28;20040;-83
2021/03/17 05:49:46;;;;;;;34.22;6.88;;;-0.50;99.90;;;;;;5050655;28;20035;-83
2021/03/17 05:52:15;;;;;;;31.67;8.50;;;-0.60;99.90;;;;;;5050850;28;20029;-82
2021/03/17 05:54:41;;;;;;;26.52;6.88;;;-0.60;99.90;;;;;;5050354;28;20573;-83
2021/03/17 05:57:06;;;;;;;18.08;8.32;;;-0.50;99.90;;;;;;5033276;28;20119;-83
2021/03/17 05:59:32;;;;;;;35.03;9.68;;;-0.50;99.90;;;;;;5033151;28;20063;-83
2021/03/17 06:01:59;;;;;;;25.77;8.27;;;-0.50;99.90;;;;;;5050765;28;20029;-82
2021/03/17 06:04:28;;;;;;;24.10;7.55;;;-0.50;99.90;;;;;;5049943;28;20032;-82
2021/03/17 06:06:57;;;;;;;33.42;8.60;;;-0.40;99.90;;;;;;5033168;28;20021;-83
2021/03/17 06:09:24;;;;;;;35.10;7.40;;;-0.40;99.90;;;;;;5050219;28;20029;-82
2021/03/17 06:11:50;;;;;;;22.88;8.00;;;-0.30;99.90;;;;;;5033138;28;20028;-82
2021/03/17 06:14:20;;;;;;;31.98;8.80;;;-0.30;99.90;;;;;;5032440;28;20051;-83
2021/03/17 06:16:50;;;;;;;21.75;8.27;;;-0.30;99.90;;;;;;5050856;28;20036;-83
2021/03/17 06:19:21;;;;;;;15.55;7.20;;;-0.30;99.90;;;;;;5050398;28;20497;-82
2021/03/17 06:21:46;;;;;;;22.08;7.82;;;-0.30;99.90;;;;;;5033060;28;20053;-83
2021/03/17 06:24:13;;;;;;;24.40;7.82;;;-0.30;99.90;;;;;;5049775;28;20494;-82
2021/03/17 06:26:39;;;;;;;26.10;11.43;;;-0.30;99.90;;;;;;5033030;28;20056;-83
2021/03/17 06:29:05;;;;;;;30.55;8.73;;;-0.40;99.90;;;;;;5050464;28;20175;-83
2021/03/17 06:31:31;;;;;;;28.15;7.45;;;-0.30;99.90;;;;;;5035091;28;20021;-83
2021/03/17 06:33:57;;;;;;;22.10;8.68;;;-0.40;99.90;;;;;;5053739;28;20029;-83
2021/03/17 06:36:24;;;;;;;20.88;8.23;;;-0.30;99.90;;;;;;5054260;28;20036;-83
2021/03/17 06:39:03;;;;;;;36.38;8.82;;;-0.30;99.90;;;;;;5053823;28;20568;-83
2021/03/17 06:41:49;;;;;;;31.17;11.45;;;-0.20;99.90;;;;;;5034328;28;20441;-83
2021/03/17 06:44:23;;;;;;;24.48;10.80;;;-0.10;99.90;;;;;;5033700;28;20518;-83
2021/03/17 06:47:10;;;;;;;27.27;10.77;;;-0.10;99.90;;;;;;5032809;28;20031;-81
2021/03/17 06:49:44;;;;;;;34.40;10.68;;;0.00;99.90;;;;;;5048706;28;20039;-80
2021/03/17 06:52:35;;;;;;;31.58;10.35;;;0.00;99.90;;;;;;5033187;28;20397;-81
2021/03/17 06:55:10;;;;;;;39.25;10.55;;;0.10;99.90;;;;;;5057006;28;20021;-81
2021/03/17 06:57:36;;;;;;;37.42;12.52;;;0.10;99.90;;;;;;5034327;28;20106;-83
2021/03/17 07:00:32;;;;;;;26.02;10.45;;;0.20;99.90;;;;;;5049969;28;20028;-82
2021/03/17 07:03:11;;;;;;;26.25;10.35;;;0.20;99.90;;;;;;5042284;28;20067;-83
2021/03/17 07:05:45;;;;;;;36.17;11.30;;;0.20;99.90;;;;;;5049009;28;20025;-83
2021/03/17 07:08:12;;;;;;;22.63;11.77;;;0.30;99.90;;;;;;5047351;28;20037;-83
2021/03/17 07:10:41;;;;;;;30.92;11.48;;;0.40;99.90;;;;;;5035380;28;20500;-82
2021/03/17 07:13:09;;;;;;;31.08;10.88;;;0.50;99.90;;;;;;5050135;28;20075;-84
2021/03/17 07:15:37;;;;;;;26.23;10.07;;;0.50;99.90;;;;;;5047925;28;20017;-81
2021/03/17 07:18:23;;;;;;;36.35;10.15;;;0.40;99.90;;;;;;5050001;28;20035;-82
2021/03/17 07:20:51;;;;;;;43.72;11.95;;;0.40;99.90;;;;;;5050096;28;20021;-82
2021/03/17 07:23:20;;;;;;;35.30;13.63;;;0.50;99.90;;;;;;5042110;28;20029;-80
2021/03/17 07:26:22;;;;;;;37.63;14.82;;;0.60;99.90;;;;;;5040508;28;20489;-80
2021/03/17 07:28:47;;;;;;;36.85;15.50;;;0.60;99.90;;;;;;5049293;28;20033;-82
2021/03/17 07:31:33;;;;;;;47.78;15.43;;;0.60;99.90;;;;;;5036234;28;20036;-81
2021/03/17 07:34:15;;;;;;;95.00;17.70;;;0.70;99.90;;;;;;5048792;28;20037;-82
2021/03/17 07:36:46;;;;;;;63.35;15.75;;;0.80;99.90;;;;;;5049300;28;20021;-81
2021/03/17 07:39:26;;;;;;;44.97;15.18;;;0.80;99.90;;;;;;5036641;28;20029;-82
2021/03/17 07:41:54;;;;;;;38.35;14.75;;;0.80;99.90;;;;;;5049611;28;20033;-81
2021/03/17 07:44:21;;;;;;;198.25;21.02;;;0.80;99.90;;;;;;5037469;28;20051;-81
2021/03/17 07:46:52;;;;;;;104.47;16.25;;;0.90;99.90;;;;;;5033016;28;20040;-82
2021/03/17 07:49:18;;;;;;;87.78;14.40;;;0.90;99.90;;;;;;5051133;28;20063;-82
2021/03/17 07:51:56;;;;;;;254.85;22.23;;;1.00;99.90;;;;;;5052907;28;20052;-81
2021/03/17 07:54:31;;;;;;;137.05;19.50;;;1.00;99.90;;;;;;5052016;28;20029;-81
2021/03/17 07:56:57;;;;;;;273.90;22.75;;;1.00;99.90;;;;;;5052537;28;20032;-82
2021/03/17 07:59:24;;;;;;;86.05;17.27;;;1.10;99.90;;;;;;5051936;28;20032;-81
2021/03/17 08:01:52;;;;;;;92.85;18.52;;;1.20;99.90;;;;;;5050720;28;20032;-82
2021/03/17 08:04:17;;;;;;;181.05;22.42;;;1.20;99.90;;;;;;5051501;28;20064;-81
2021/03/17 08:06:44;;;;;;;120.35;19.55;;;1.30;99.90;;;;;;5052162;28;20109;-82
2021/03/17 08:09:09;;;;;;;87.97;16.75;;;1.20;99.90;;;;;;5051696;28;20044;-82
2021/03/17 08:11:36;;;;;;;37.97;14.00;;;1.30;99.90;;;;;;5034465;28;20017;-81
2021/03/17 08:14:02;;;;;;;94.88;17.67;;;1.30;99.90;;;;;;5033587;28;20104;-82
2021/03/17 08:16:34;;;;;;;50.65;15.13;;;1.40;99.90;;;;;;5052192;28;20025;-82
2021/03/17 08:19:00;;;;;;;197.80;20.67;;;1.30;99.90;;;;;;5052271;28;20035;-82
2021/03/17 08:21:45;;;;;;;71.78;16.08;;;1.30;99.90;;;;;;5052123;28;20385;-80
2021/03/17 08:24:40;;;;;;;93.93;16.83;;;1.30;99.90;;;;;;5050913;28;20516;-80
2021/03/17 08:27:06;;;;;;;103.50;16.85;;;1.30;99.90;;;;;;5051951;28;20416;-79
2021/03/17 08:29:39;;;;;;;38.47;17.08;;;1.30;99.90;;;;;;5051885;28;20029;-79
2021/03/17 08:32:06;;;;;;;63.45;18.52;;;1.30;99.90;;;;;;5052203;28;20029;-79
2021/03/17 08:34:33;;;;;;;88.57;17.85;;;1.40;99.90;;;;;;5050565;28;20075;-79
2021/03/17 08:37:04;;;;;;;52.75;16.55;;;1.30;99.90;;;;;;5051915;28;20017;-80
2021/03/17 08:39:30;;;;;;;84.32;17.65;;;1.50;99.90;;;;;;5051443;28;20104;-80
2021/03/17 08:41:57;;;;;;;87.72;18.75;;;1.50;99.90;;;;;;5033895;28;20620;-80
2021/03/17 08:44:30;;;;;;;66.13;18.15;;;1.60;99.90;;;;;;5032890;28;20029;-80
2021/03/17 08:47:11;;;;;;;64.20;17.55;;;1.80;99.90;;;;;;5051598;28;20115;-82
2021/03/17 08:49:37;;;;;;;36.92;16.08;;;2.00;99.90;;;;;;5033854;28;20389;-82
2021/03/17 08:52:06;;;;;;;43.08;15.45;;;2.20;99.90;;;;;;5051598;28;20032;-82
2021/03/17 08:54:34;;;;;;;33.05;14.57;;;2.30;99.90;;;;;;5050569;28;20025;-82
2021/03/17 08:57:10;;;;;;;23.92;13.93;;;2.30;99.90;;;;;;5051625;28;20028;-81
2021/03/17 08:59:41;;;;;;;42.92;16.55;;;2.20;99.90;;;;;;5033373;28;20063;-81
2021/03/17 09:02:25;;;;;;;46.72;15.93;;;2.20;99.90;;;;;;5022577;28;20028;-81
2021/03/17 09:04:54;;;;;;;28.25;14.85;;;2.30;99.90;;;;;;5051135;28;20060;-81
2021/03/17 09:07:22;;;;;;;21.45;13.45;;;2.50;99.90;;;;;;5051827;28;20051;-82
2021/03/17 09:09:51;;;;;;;26.08;14.07;;;2.70;99.90;;;;;;5051698;28;20397;-83
2021/03/17 09:12:42;;;;;;;45.83;12.55;;;2.90;99.90;;;;;;5051897;28;20109;-82
2021/03/17 09:15:14;;;;;;;31.48;14.88;;;2.90;99.90;;;;;;5044124;28;20401;-82
2021/03/17 09:17:56;;;;;;;28.10;14.43;;;3.00;99.90;;;;;;5052422;28;20021;-81
2021/03/17 09:20:21;;;;;;;32.78;12.75;;;3.20;99.90;;;;;;5052294;28;20029;-81
2021/03/17 09:23:01;;;;;;;23.23;12.35;;;3.10;99.90;;;;;;5052179;28;20024;-82
2021/03/17 09:25:28;;;;;;;20.55;11.65;;;3.10;99.90;;;;;;5032244;28;20517;-82
2021/03/17 09:28:04;;;;;;;22.73;12.43;;;3.00;99.90;;;;;;5043565;28;20040;-82
2021/03/17 09:30:42;;;;;;;26.08;16.15;;;3.10;99.90;;;;;;5071404;28;20491;-81
2021/03/17 09:33:17;;;;;;;55.72;34.28;;;3.20;99.90;;;;;;5044187;28;20037;-80
2021/03/17 09:35:50;;;;;;;64.07;35.83;;;3.30;99.90;;;;;;5036531;28;20092;-81
2021/03/17 09:38:17;;;;;;;55.47;32.03;;;3.20;99.90;;;;;;5043148;28;20021;-82
2021/03/17 09:40:50;;;;;;;54.45;31.48;;;3.20;99.90;;;;;;5041050;28;20043;-82
2021/03/17 09:43:34;;;;;;;44.13;25.85;;;3.30;99.90;;;;;;5047079;28;20029;-82
2021/03/17 09:46:17;;;;;;;48.83;23.25;;;3.30;99.90;;;;;;5046268;28;20063;-80
2021/03/17 09:48:43;;;;;;;31.13;20.88;;;3.40;99.90;;;;;;5034474;28;20033;-81
2021/03/17 09:51:14;;;;;;;32.83;18.17;;;3.50;99.90;;;;;;5047365;28;20555;-80
2021/03/17 09:53:40;;;;;;;27.20;15.95;;;3.60;99.90;;;;;;5047167;28;20026;-81
2021/03/17 09:56:06;;;;;;;28.60;13.65;;;3.80;99.90;;;;;;5045970;28;20028;-80
2021/03/17 09:58:31;;;;;;;18.15;11.68;;;4.00;99.90;;;;;;5030817;28;20120;-80
2021/03/17 10:01:13;;;;;;;15.63;11.32;;;4.20;99.90;;;;;;5030271;28;20576;-81
2021/03/17 10:03:47;;;;;;;14.00;10.43;;;4.40;99.90;;;;;;5031046;28;20029;-81
2021/03/17 10:06:14;;;;;;;17.50;10.82;;;4.50;99.90;;;;;;5044353;28;20028;-81
2021/03/17 10:08:41;;;;;;;13.98;9.50;;;4.60;99.90;;;;;;5048736;28;20047;-80
2021/03/17 10:11:13;;;;;;;17.67;10.63;;;4.50;99.90;;;;;;5049717;28;20048;-80
2021/03/17 10:13:39;;;;;;;28.50;13.43;;;4.70;99.90;;;;;;5050599;28;20520;-81
2021/03/17 10:16:05;;;;;;;19.35;12.57;;;5.40;99.90;;;;;;5050990;28;20036;-81
2021/03/17 10:18:31;;;;;;;19.75;12.25;;;5.80;99.90;;;;;;5052423;28;20025;-80
2021/03/17 10:20:56;;;;;;;22.52;11.27;;;6.40;99.90;;;;;;5050852;28;20032;-81
2021/03/17 10:23:23;;;;;;;17.52;12.02;;;6.80;99.90;;;;;;5046077;28;20025;-82
2021/03/17 10:25:49;;;;;;;17.00;10.90;;;6.90;99.90;;;;;;5050200;28;20036;-80
2021/03/17 10:28:16;;;;;;;19.88;12.30;;;7.00;99.90;;;;;;5048484;28;20047;-80
2021/03/17 10:30:46;;;;;;;20.42;11.60;;;6.80;99.90;;;;;;5046562;28;20048;-80
2021/03/17 10:33:19;;;;;;;18.10;11.65;;;6.40;99.90;;;;;;5045275;28;20021;-81
2021/03/17 10:35:46;;;;;;;18.05;11.60;;;6.10;99.90;;;;;;5047179;28;20025;-81
2021/03/17 10:38:11;;;;;;;22.10;13.20;;;6.20;99.90;;;;;;5047138;28;20040;-81
2021/03/17 10:40:38;;;;;;;20.77;12.85;;;6.30;99.90;;;;;;5045872;28;20032;-80
2021/03/17 10:43:14;;;;;;;23.17;14.45;;;6.80;99.90;;;;;;5045436;28;20025;-80
2021/03/17 10:45:50;;;;;;;21.40;13.80;;;7.00;99.90;;;;;;5044786;28;20029;-81
2021/03/17 10:48:19;;;;;;;27.73;15.23;;;6.90;99.90;;;;;;5046639;28;20047;-80
2021/03/17 10:50:45;;;;;;;49.08;28.15;;;6.70;99.90;;;;;;5046213;28;20047;-80
2021/03/17 10:53:19;;;;;;;60.53;34.03;;;6.70;99.90;;;;;;5044539;28;20086;-81
2021/03/17 10:55:45;;;;;;;60.13;33.17;;;6.50;99.90;;;;;;5041688;28;20090;-80
2021/03/17 10:58:14;;;;;;;56.88;30.58;;;6.60;99.90;;;;;;5042809;28;20116;-80
2021/03/17 11:00:43;;;;;;;54.22;31.25;;;6.80;99.90;;;;;;5036261;28;20060;-80
2021/03/17 11:03:28;;;;;;;51.20;26.48;;;6.80;99.90;;;;;;5032990;28;20051;-80
2021/03/17 11:06:11;;;;;;;39.97;20.98;;;7.00;99.90;;;;;;5045636;28;20079;-80
2021/03/17 11:08:37;;;;;;;26.03;13.33;;;7.20;99.90;;;;;;5045204;28;20535;-80
2021/03/17 11:11:06;;;;;;;25.95;13.18;;;7.30;99.90;;;;;;5043287;28;20071;-81
2021/03/17 11:13:34;;;;;;;24.77;13.90;;;7.30;99.90;;;;;;5048717;28;20508;-80
2021/03/17 11:16:03;;;;;;;18.88;10.10;;;7.70;99.90;;;;;;5046589;28;20104;-80
2021/03/17 11:18:48;;;;;;;21.02;12.73;;;7.90;99.90;;;;;;5045209;28;20029;-80
2021/03/17 11:21:31;;;;;;;21.65;12.98;;;8.10;99.90;;;;;;5043907;28;20527;-80
2021/03/17 11:23:59;;;;;;;36.67;12.33;;;8.20;99.90;;;;;;5026931;28;20029;-80
2021/03/17 11:26:39;;;;;;;17.08;11.48;;;8.20;99.90;;;;;;5036239;28;20504;-81
2021/03/17 11:29:16;;;;;;;17.75;10.35;;;8.50;99.90;;;;;;5044812;28;20528;-81
2021/03/17 11:31:42;;;;;;;16.60;10.43;;;8.70;99.90;;;;;;5032350;28;20485;-80
2021/03/17 11:34:09;;;;;;;18.70;10.43;;;8.70;99.90;;;;;;5044285;28;20021;-80
2021/03/17 11:36:36;;;;;;;16.40;10.32;;;8.80;99.90;;;;;;5046101;28;20028;-81
2021/03/17 11:39:09;;;;;;;17.05;10.65;;;8.90;99.90;;;;;;5030699;28;20447;-80
2021/03/17 11:41:37;;;;;;;17.85;9.43;;;9.10;99.90;;;;;;5043144;28;20029;-80
2021/03/17 11:44:03;;;;;;;14.25;9.07;;;9.10;99.90;;;;;;5042821;28;20037;-80
2021/03/17 11:46:29;;;;;;;13.32;7.63;;;9.20;99.90;;;;;;5047332;28;20025;-81
2021/03/17 11:48:54;;;;;;;11.02;7.25;;;9.40;99.90;;;;;;5043765;28;20606;-81
2021/03/17 11:51:21;;;;;;;11.13;7.03;;;9.60;99.90;;;;;;5029450;28;20381;-81
2021/03/17 11:53:47;;;;;;;14.77;6.68;;;9.70;99.90;;;;;;5050773;28;20029;-81
2021/03/17 11:56:13;;;;;;;15.02;6.53;;;9.90;99.90;;;;;;5046466;28;20123;-81
2021/03/17 11:58:39;;;;;;;8.20;6.05;;;9.90;99.90;;;;;;5044927;28;20025;-81
2021/03/17 12:01:05;;;;;;;11.18;5.97;;;10.00;99.90;;;;;;5031166;28;20031;-81
2021/03/17 12:03:31;;;;;;;9.20;6.07;;;10.00;99.90;;;;;;5047768;28;20103;-81
2021/03/17 12:05:57;;;;;;;11.40;5.90;;;9.90;99.90;;;;;;5047901;28;20043;-81
2021/03/17 12:08:23;;;;;;;9.68;6.47;;;9.70;99.90;;;;;;5048255;28;20511;-81
2021/03/17 12:10:51;;;;;;;7.00;4.75;;;10.00;99.90;;;;;;5030332;28;20037;-80
2021/03/17 12:13:18;;;;;;;6.18;4.28;;;10.00;99.90;;;;;;5048785;28;20111;-81
2021/03/17 12:15:43;;;;;;;7.80;4.38;;;10.40;99.90;;;;;;5048083;28;20037;-81
2021/03/17 12:18:09;;;;;;;6.47;4.70;;;10.90;99.90;;;;;;5048126;28;20033;-81
2021/03/17 12:20:35;;;;;;;7.55;5.30;;;11.20;99.90;;;;;;5031023;28;20082;-81
2021/03/17 12:23:01;;;;;;;5.03;3.65;;;11.40;99.90;;;;;;5048670;28;20035;-81
2021/03/17 12:25:27;;;;;;;8.48;4.65;;;11.50;99.90;;;;;;5051723;28;20032;-81
2021/03/17 12:27:53;;;;;;;6.00;4.18;;;11.50;99.90;;;;;;5046998;28;20021;-81
2021/03/17 12:30:21;;;;;;;11.40;4.68;;;11.80;99.90;;;;;;5033703;28;20417;-81
2021/03/17 12:32:47;;;;;;;6.18;4.70;;;11.80;99.90;;;;;;5052048;28;20025;-82
2021/03/17 12:35:15;;;;;;;9.02;4.63;;;12.00;99.90;;;;;;5051463;28;20025;-81
2021/03/17 12:37:42;;;;;;;5.25;4.45;;;11.90;99.90;;;;;;5033663;28;20049;-81
2021/03/17 12:40:10;;;;;;;6.15;4.65;;;11.80;99.90;;;;;;5052054;28;20056;-81
2021/03/17 12:42:36;;;;;;;8.45;5.07;;;11.80;99.90;;;;;;5051720;28;20132;-81
2021/03/17 12:45:07;;;;;;;9.38;5.07;;;12.10;99.90;;;;;;5051409;28;20119;-81
2021/03/17 12:47:33;;;;;;;10.50;6.07;;;12.30;99.90;;;;;;5051948;28;20017;-82
2021/03/17 12:49:59;;;;;;;7.80;4.95;;;12.20;99.90;;;;;;5051663;28;20032;-82
2021/03/17 12:52:24;;;;;;;11.52;4.78;;;12.40;99.90;;;;;;5033969;28;20025;-82